• Join FlightAware (Why Join?)
  • Login
  • US Flag 
04:05AM EDT


 

Airport Tracker/Info


-or-


 

Live Flight TrackerFlight Track Log ✈ N45EJ ✈ 22-Dec-2013 ✈ KPWK - KSLC

Flight Track Log - Related Links

Times and Time Zones

All times are in EST time to prevent confusion due to time zone crossing. See the N45EJ flight status page for this flight to view local times or setup timezone preferences in your user account.

Time Position Orientation Groundspeed Altitude Reporting Facility
EST Latitude Longitude Course Direction KTS MPH feet Rate Location/Type
12:22PM 42.1517 -87.9231 304° West 165 190 40,000  Level Chicago Center
12:23PM 42.1811 -87.9814 304° West 231 266 3,600 -17,520 Descending Chicago Center
12:24PM 42.1981 -88.0678 285° West 238 274 4,200 1,740 Climbing Chicago Center
12:25PM 42.1656 -88.1717 247° West 253 291 7,200 3,240 Climbing Chicago Center
12:26PM 42.1397 -88.2614 249° West 269 310 10,900 3,060 Climbing Chicago Center
12:27PM 42.1397 -88.3603 270° West 269 310 13,600 2,460 Climbing Chicago Center
12:28PM 42.1225 -88.4642 257° West 283 326 16,000 2,040 Climbing Chicago Center
12:29PM 42.1056 -88.5772 259° West 302 348 17,900 2,040 Climbing Chicago Center
12:30PM 42.0875 -88.6964 258° West 321 369 20,300 2,400 Climbing Chicago Center
12:31PM 42.0678 -88.8458 260° West 337 388 22,900 1,800 Climbing Chicago Center
12:32PM 42.0506 -88.9792 260° West 356 410 24,100 2,220 Climbing Chicago Center
12:33PM 42.0442 -89.1111 266° West 356 410 27,500 2,880 Climbing Chicago Center
12:34PM 42.0408 -89.2358 268° West 340 391 30,100 2,100 Climbing Chicago Center
12:35PM 42.0394 -89.3539 269° West 321 369 31,900 1,140 Climbing Chicago Center
12:36PM 42.0364 -89.4764 268° West 331 381 32,500 480 Climbing Chicago Center
12:38PM 42.0594 -89.6331 281° West 362 417 33,000 420 Climbing Chicago Center
12:39PM 42.0894 -89.7767 286° West 396 456 33,400 900 Climbing Chicago Center
12:40PM 42.0919 -89.9042 272° West 344 396 34,900 1,560 Climbing Chicago Center
12:41PM 42.0858 -90.0225 266° West 335 386 36,700 1,500 Climbing Chicago Center
12:42PM 42.0822 -90.1400 268° West 321 369 38,100 1,020 Climbing Chicago Center
12:43PM 42.0783 -90.2558 267° West 313 360 38,900 780 Climbing Chicago Center
12:44PM 42.0744 -90.3956 268° West 313 360 39,800 480 Climbing Chicago Center
12:45PM 42.0686 -90.5158 266° West 320 368 40,000 60 Climbing Chicago Center
12:46PM 42.0639 -90.6403 267° West 331 381 40,000  Level Chicago Center
12:47PM 42.0597 -90.7733 268° West 353 406 40,000  Level Chicago Center
12:48PM 42.0533 -90.9106 266° West 365 420 40,000  Level Chicago Center
12:49PM 42.0472 -91.0464 267° West 367 422 40,000  Level Chicago Center
12:50PM 42.0417 -91.1856 267° West 373 429 40,000  Level Chicago Center
12:51PM 42.0347 -91.3511 267° West 371 427 40,000  Level Chicago Center
12:52PM 42.0278 -91.4900 266° West 373 429 40,000  Level Chicago Center
12:53PM 42.0219 -91.6281 267° West 372 428 40,000  Level Chicago Center
12:54PM 42.0156 -91.7672 267° West 373 429 40,000  Level Chicago Center
12:55PM 42.0086 -91.9044 266° West 371 427 40,000  Level Chicago Center
12:56PM 42.0025 -92.0431 267° West 371 427 40,000  Level Chicago Center
12:57PM 41.9944 -92.1822 266° West 373 429 40,000  Level Chicago Center
12:58PM 41.9856 -92.3503 266° West 376 433 40,000  Level Chicago Center
12:59PM 41.9781 -92.4906 266° West 378 435 40,000  Level Chicago Center
01:00PM 41.9703 -92.6289 266° West 373 429 40,000  Level Chicago Center
01:01PM 41.9631 -92.7669 266° West 374 430 40,000  Level Chicago Center
01:02PM 41.9544 -92.9047 265° West 372 428 40,000  Level Chicago Center
01:03PM 41.9514 -92.9897 267° West 373 429 40,000  Level Minneapolis Center
01:04PM 41.9406 -93.1358 264° West 376 433 40,000  Level Minneapolis Center
01:05PM 41.9319 -93.2761 265° West 378 435 40,000  Level Minneapolis Center
01:06PM 41.9231 -93.4444 266° West 379 436 40,000  Level Minneapolis Center
01:07PM 41.9128 -93.5839 264° West 378 435 40,000  Level Minneapolis Center
01:08PM 41.9039 -93.7250 265° West 383 441 40,000  Level Minneapolis Center
01:09PM 41.8939 -93.8725 265° West 384 442 40,000  Level Minneapolis Center
01:10PM 41.8850 -94.0178 265° West 389 448 40,000  Level Minneapolis Center
01:11PM 41.8747 -94.1619 265° West 390 449 40,000  Level Minneapolis Center
01:12PM 41.8647 -94.3081 265° West 392 451 40,000  Level Minneapolis Center
01:13PM 41.8528 -94.4819 265° West 391 450 40,000  Level Minneapolis Center
01:14PM 41.8417 -94.6281 264° West 394 453 40,000  Level Minneapolis Center
01:15PM 41.8314 -94.7767 265° West 400 460 40,000  Level Minneapolis Center
01:16PM 41.8200 -94.9253 264° West 401 461 40,000  Level Minneapolis Center
01:17PM 41.8086 -95.0717 264° West 398 458 40,000  Level Minneapolis Center
01:18PM 41.7972 -95.2203 264° West 401 461 40,000  Level Minneapolis Center
01:19PM 41.7858 -95.3681 264° West 401 461 40,000  Level Minneapolis Center
01:20PM 41.7711 -95.5439 264° West 398 458 40,000  Level Minneapolis Center
01:21PM 41.7589 -95.6908 264° West 399 459 40,000  Level Minneapolis Center
01:22PM 41.7461 -95.8375 263° West 399 459 40,000  Level Minneapolis Center
01:23PM 41.7333 -95.9839 263° West 400 460 40,000  Level Minneapolis Center
01:24PM 41.7219 -96.1317 264° West 402 463 40,000  Level Minneapolis Center
01:25PM 41.7058 -96.3114 263° West 408 470 40,000  Level Minneapolis Center
01:27PM 41.6931 -96.4625 264° West 411 473 40,000  Level Minneapolis Center
01:28PM 41.6786 -96.6131 263° West 410 472 40,000  Level Minneapolis Center
01:29PM 41.6650 -96.7631 263° West 410 472 40,000  Level Minneapolis Center
01:30PM 41.6511 -96.9144 263° West 411 473 40,000  Level Minneapolis Center
01:31PM 41.6369 -97.0667 263° West 412 474 40,000  Level Minneapolis Center
01:32PM 41.6214 -97.2169 262° West 411 473 40,000  Level Minneapolis Center
01:33PM 41.6047 -97.3989 263° West 412 474 40,000  Level Minneapolis Center
01:34PM 41.5892 -97.5511 262° West 413 475 40,000  Level Minneapolis Center
01:35PM 41.5742 -97.7042 263° West 415 478 40,000  Level Minneapolis Center
01:36PM 41.5589 -97.8578 262° West 416 479 40,000  Level Minneapolis Center
01:37PM 41.5433 -98.0114 262° West 418 481 40,000  Level Minneapolis Center
01:38PM 41.5264 -98.1803 262° West 420 483 40,000  Level Minneapolis Center
01:39PM 41.5097 -98.3342 262° West 421 484 40,000  Level Minneapolis Center
01:40PM 41.4914 -98.5050 262° West 420 483 40,000  Level Minneapolis Center
01:41PM 41.4742 -98.6589 262° West 419 482 40,000  Level Minneapolis Center
01:42PM 41.4575 -98.8125 262° West 419 482 40,000  Level Minneapolis Center
01:43PM 41.4411 -98.9672 262° West 422 486 40,000  Level Minneapolis Center
01:44PM 41.4225 -99.1267 261° West 415 478 40,000  Level Denver Center
01:45PM 41.4044 -99.2781 261° West 416 479 40,000  Level Denver Center
01:46PM 41.3869 -99.4325 261° West 422 486 40,000  Level Denver Center
01:47PM 41.3692 -99.5875 261° West 424 488 40,000  Level Denver Center
01:48PM 41.3497 -99.7472 261° West 428 493 40,000  Level Denver Center
01:49PM 41.3283 -99.9222 261° West 429 494 40,000  Level Denver Center
01:50PM 41.3114 -100.0714 261° West 428 493 40,000  Level Denver Center
01:51PM 41.2903 -100.2444 261° West 427 491 40,000  Level Denver Center
01:52PM 41.2717 -100.3925 261° West 426 490 40,000  Level Denver Center
01:53PM 41.2503 -100.5650 261° West 427 491 40,000  Level Denver Center
01:54PM 41.2311 -100.7128 260° West 427 491 40,000  Level Denver Center
01:55PM 41.2097 -100.8839 261° West 424 488 40,000  Level Denver Center
01:56PM 41.1897 -101.0317 260° West 426 490 40,000  Level Denver Center
01:57PM 41.1675 -101.1992 260° West 417 480 40,000  Level Denver Center
01:58PM 41.1503 -101.3422 261° West 414 476 40,000  Level Denver Center
01:59PM 41.1272 -101.5064 259° West 408 470 40,000  Level Denver Center
02:01PM 41.1086 -101.6472 260° West 407 468 40,000  Level Denver Center
02:02PM 41.0869 -101.8147 260° West 412 474 40,000  Level Denver Center
02:03PM 41.0658 -101.9600 259° West 418 481 40,000  Level Denver Center
02:04PM 41.0417 -102.1311 259° West 424 488 40,000  Level Denver Center
02:05PM 41.0200 -102.2792 259° West 427 491 40,000  Level Denver Center
02:06PM 40.9944 -102.4531 259° West 431 496 40,000  Level Denver Center
02:07PM 40.9728 -102.5986 259° West 425 489 40,000  Level Denver Center
02:08PM 40.9497 -102.7656 260° West 414 476 40,000  Level Denver Center
02:09PM 40.9281 -102.9081 259° West 414 476 40,000  Level Denver Center
02:10PM 40.9064 -103.0517 259° West 415 478 40,000  Level Denver Center
02:11PM 40.8803 -103.2278 259° West 410 472 40,000  Level Denver Center
02:12PM 40.8575 -103.3764 259° West 414 476 40,000  Level Denver Center
02:13PM 40.8353 -103.5261 259° West 416 479 40,000  Level Denver Center
02:14PM 40.8122 -103.6756 259° West 417 480 40,000  Level Denver Center
02:15PM 40.7889 -103.8244 258° West 416 479 40,000  Level Denver Center
02:16PM 40.7606 -104.0025 258° West 416 479 40,000  Level Denver Center
02:17PM 40.7378 -104.1517 259° West 416 479 40,000  Level Denver Center
02:18PM 40.7131 -104.3047 258° West 428 493 40,000  Level Denver Center
02:19PM 40.6886 -104.4531 258° West 421 484 40,000  Level Denver Center
02:20PM 40.6642 -104.6022 258° West 419 482 40,000  Level Denver Center
02:21PM 40.6350 -104.7808 258° West 419 482 40,000  Level Denver Center
02:22PM 40.6092 -104.9289 257° West 418 481 40,000  Level Denver Center
02:23PM 40.5844 -105.0803 258° West 424 488 40,000  Level Denver Center
02:24PM 40.5592 -105.2303 258° West 423 487 40,000  Level Denver Center
02:25PM 40.5328 -105.3806 257° West 424 488 40,000  Level Denver Center
02:26PM 40.5075 -105.5294 257° West 421 484 40,000  Level Denver Center
02:27PM 40.4758 -105.7111 257° West 426 490 40,000  Level Denver Center
02:28PM 40.4494 -105.8614 257° West 425 489 40,000  Level Denver Center
02:29PM 40.4239 -106.0128 258° West 426 490 40,000  Level Denver Center
02:31PM 40.3939 -106.1686 256° West 425 489 40,000  Level Denver Center
02:32PM 40.3653 -106.3403 258° West 430 495 40,000  Level Denver Center
02:33PM 40.3389 -106.4847 257° West 427 491 40,000  Level Denver Center
02:34PM 40.3125 -106.6261 256° West 425 489 40,000  Level Denver Center
02:35PM 40.2631 -106.8933 256° West 422 486 40,000  Level Salt Lake Center
02:36PM 40.2303 -107.0661 256° West 442 509 40,000  Level Salt Lake Center
02:37PM 40.2036 -107.2169 257° West 444 511 40,000  Level Salt Lake Center
02:38PM 40.1700 -107.3892 256° West 441 507 40,000  Level Salt Lake Center
02:39PM 40.1428 -107.5369 256° West 438 504 40,000  Level Salt Lake Center
02:40PM 40.1097 -107.7081 256° West 436 502 40,000  Level Salt Lake Center
02:42PM 40.0808 -107.8550 256° West 437 503 40,000  Level Salt Lake Center
02:43PM 40.0717 -108.0253 266° West 422 486 40,000  Level Salt Lake Center
02:44PM 40.0783 -108.1678 274° West 414 476 40,000  Level Salt Lake Center
02:45PM 40.0861 -108.3325 274° West 411 473 40,000  Level Salt Lake Center
02:46PM 40.0917 -108.4750 273° West 411 473 40,000  Level Salt Lake Center
02:47PM 40.0989 -108.6425 273° West 416 479 40,000  Level Salt Lake Center
02:48PM 40.1042 -108.7869 273° West 418 481 40,000  Level Salt Lake Center
02:49PM 40.1108 -108.9539 273° West 416 479 40,000  Level Salt Lake Center
02:50PM 40.1164 -109.0939 273° West 409 471 40,000  Level Salt Lake Center
02:51PM 40.1214 -109.2569 272° West 405 466 40,000 -300 Level Salt Lake Center
02:52PM 40.1272 -109.3978 273° West 406 467 39,400 -720 Descending Salt Lake Center
02:53PM 40.1322 -109.5592 272° West 400 460 38,600 -1,140 Descending Salt Lake Center
02:54PM 40.1358 -109.6919 272° West 388 447 37,100 -1,560 Descending Salt Lake Center
02:55PM 40.1425 -109.8539 273° West 399 459 35,400 -1,500 Descending Salt Lake Center
02:56PM 40.1453 -109.9994 271° West 416 479 34,000 -1,500 Descending Salt Lake Center
02:57PM 40.1494 -110.1706 272° West 421 484 32,300 -1,500 Descending Salt Lake Center
02:58PM 40.1469 -110.3172 269° West 422 486 30,900 -1,200 Descending Salt Lake Center
02:59PM 40.1461 -110.4617 270° West 418 481 29,900 -1,260 Descending Salt Lake Center
03:00PM 40.1453 -110.6206 270° West 395 455 28,300 -1,500 Descending Salt Lake Center
03:01PM 40.1431 -110.7556 269° West 392 451 26,900 -1,440 Descending Salt Lake Center
03:02PM 40.1408 -110.9089 269° West 381 438 25,400 -1,380 Descending Salt Lake Center
03:03PM 40.1400 -111.0344 270° West 376 433 24,100 -1,440 Descending Salt Lake Center
03:04PM 40.1372 -111.1967 269° West 374 430 22,500 -1,500 Descending Salt Lake Center
03:05PM 40.1342 -111.3289 268° West 367 422 21,100 -1,380 Descending Salt Lake Center
03:06PM 40.1278 -111.4725 267° West 353 406 19,700 -1,260 Descending Salt Lake Center
03:06PM 40.1322 -111.4586 67° East 358 412 19,800 -780 Climbing Salt Lake Center
03:07PM 40.1364 -111.5792 273° West 335 386 19,000 -780 Descending Salt Lake Center
03:07PM 40.1417 -111.5803 351° North 334 384 19,000 -900 Level Salt Lake Center
03:08PM 40.1819 -111.6983 294° West 315 362 18,000 -900 Descending Salt Lake Center
03:08PM 40.1825 -111.6853 87° East 324 373 18,100 -600 Climbing Salt Lake Center
03:09PM 40.2203 -111.7917 295° West 324 373 17,400 -780 Descending Salt Lake Center
03:09PM 40.2244 -111.8133 284° West 312 359 17,300 -900 Descending Salt Lake Center
03:10PM 40.2586 -111.8953 299° West 318 366 16,500 -1,140 Descending Salt Lake Center
03:10PM 40.2622 -111.9158 283° West 319 367 16,200 -1,500 Descending Salt Lake Center
03:12PM 40.3333 -111.9928 320° Northwest 317 365 15,000 -600 Descending Salt Lake Center
03:13PM 40.4111 -112.0483 331° Northwest 316 364 15,000  Level Salt Lake Center
03:13PM 40.4108 -112.0433 94° East 316 364 15,000 -1,140 Level Salt Lake Center
03:13PM 40.4894 -112.0642 349° North 316 364 14,000 -900 Descending Salt Lake Center
03:14PM 40.4958 -112.0608 22° Northeast 310 357 14,100 -840 Climbing Salt Lake Center
03:14PM 40.5775 -112.0739 353° North 311 358 13,200 -1,020 Descending Salt Lake Center
03:15PM 40.5825 -112.0717 19° North 309 356 13,100 -1,620 Descending Salt Lake Center
03:15PM 40.6617 -112.0850 353° North 306 352 11,600 -1,500 Descending Salt Lake Center
03:16PM 40.6675 -112.0814 25° Northeast 306 352 11,600 -540 Level Salt Lake Center
03:17PM 40.7406 -112.0925 353° North 223 257 11,000 -600 Descending Salt Lake Center
03:17PM 40.7383 -112.0894 134° Southeast 237 273 11,000 -540 Level Salt Lake Center
03:18PM 40.8042 -112.0992 354° North 230 265 10,500 -720 Descending Salt Lake Center
03:18PM 40.8131 -112.0986 North 226 260 10,300 -1,320 Descending Salt Lake Center
03:18PM 40.8614 -112.1053 354° North 232 267 9,300 -1,200 Descending Salt Lake Center
03:19PM 40.8772 -112.1067 356° North 230 265 9,100 -960 Descending Salt Lake Center
03:20PM 40.9406 -112.1142 355° North 227 261 8,100 -660 Descending Salt Lake Center
03:20PM 40.9847 -112.1203 354° North 227 261 8,000 -120 Descending Salt Lake Center
03:21PM 41.0044 -112.1217 357° North 228 262 8,000  Level Salt Lake Center
03:21PM 41.0467 -112.1278 354° North 225 259 8,000  Level Salt Lake Center
03:22PM 41.0661 -112.1289 358° North 222 255 8,000  Level Salt Lake Center
03:23PM 41.0983 -112.0958 38° Northeast 218 251 8,000  Level Salt Lake Center
03:23PM 41.1039 -112.0756 70° East 222 255 8,000  Level Salt Lake Center
03:23PM 41.0942 -112.0292 106° East 233 268 8,000  Level Salt Lake Center
03:24PM 41.0733 -112.0253 172° South 226 260 8,000 60 Level Salt Lake Center
03:24PM 41.0350 -112.0236 178° South 206 237 8,100  Climbing Salt Lake Center
03:25PM 41.0069 -112.0231 179° South 201 231 8,000 -540 Descending Salt Lake Center
03:25PM 40.9783 -112.0203 176° South 193 222 7,600 -900 Descending Salt Lake Center
03:26PM 40.9531 -112.0161 173° South 197 227 7,100 -1,140 Descending Salt Lake Center
03:26PM 40.9231 -112.0133 176° South 200 230 6,500 -1,020 Descending Salt Lake Center
03:27PM 40.8997 -112.0103 174° South 194 223 6,100 -1,020 Descending Salt Lake Center
03:28PM 40.8706 -112.0086 178° South 186 214 5,500 -1,020 Descending Salt Lake Center
03:28PM 40.8489 -112.0044 172° South 186 214 5,100 -840 Descending Salt Lake Center
03:29PM 40.8258 -112.0011 174° South 144 166 4,700 -720 Descending Salt Lake Center
03:29PM 40.8106 -111.9989 174° South 141 162 4,400 -540 Descending Salt Lake Center
03:31PM 40.7884 -111.9778 North  Level Estimated